sensor_id;sensor_type;location;lat;lon;timestamp;P1;durP1;ratioP1;P2;durP2;ratioP2
11731;SDS011;5922;53.734;10.258;2023-02-08T00:02:00;18.93;;;13.13;;
11731;SDS011;5922;53.734;10.258;2023-02-08T00:04:27;20.50;;;13.17;;
11731;SDS011;5922;53.734;10.258;2023-02-08T00:06:54;20.80;;;14.17;;
11731;SDS011;5922;53.734;10.258;2023-02-08T00:09:21;22.23;;;14.33;;
11731;SDS011;5922;53.734;10.258;2023-02-08T00:11:49;22.37;;;13.47;;
11731;SDS011;5922;53.734;10.258;2023-02-08T00:14:16;19.00;;;12.77;;
11731;SDS011;5922;53.734;10.258;2023-02-08T00:16:44;21.30;;;13.90;;
11731;SDS011;5922;53.734;10.258;2023-02-08T00:19:11;21.00;;;13.13;;
11731;SDS011;5922;53.734;10.258;2023-02-08T00:21:39;19.20;;;13.33;;
11731;SDS011;5922;53.734;10.258;2023-02-08T00:24:09;19.20;;;13.07;;
11731;SDS011;5922;53.734;10.258;2023-02-08T00:26:36;19.23;;;13.73;;
11731;SDS011;5922;53.734;10.258;2023-02-08T00:29:03;19.57;;;13.90;;
11731;SDS011;5922;53.734;10.258;2023-02-08T00:31:31;21.03;;;14.60;;
11731;SDS011;5922;53.734;10.258;2023-02-08T00:33:59;20.67;;;13.67;;
11731;SDS011;5922;53.734;10.258;2023-02-08T00:36:27;20.53;;;13.77;;
11731;SDS011;5922;53.734;10.258;2023-02-08T00:38:54;20.80;;;14.20;;
11731;SDS011;5922;53.734;10.258;2023-02-08T00:41:21;19.90;;;14.33;;
11731;SDS011;5922;53.734;10.258;2023-02-08T00:43:48;20.30;;;13.43;;
11731;SDS011;5922;53.734;10.258;2023-02-08T00:46:18;21.23;;;13.67;;
11731;SDS011;5922;53.734;10.258;2023-02-08T00:51:37;20.60;;;13.80;;
11731;SDS011;5922;53.734;10.258;2023-02-08T00:54:09;20.73;;;13.60;;
11731;SDS011;5922;53.734;10.258;2023-02-08T00:56:40;21.70;;;13.70;;
11731;SDS011;5922;53.734;10.258;2023-02-08T00:59:08;20.70;;;14.30;;
11731;SDS011;5922;53.734;10.258;2023-02-08T01:01:37;19.03;;;13.57;;
11731;SDS011;5922;53.734;10.258;2023-02-08T01:04:04;19.97;;;13.53;;
11731;SDS011;5922;53.734;10.258;2023-02-08T01:06:34;22.30;;;14.40;;
11731;SDS011;5922;53.734;10.258;2023-02-08T01:09:09;21.20;;;13.90;;
11731;SDS011;5922;53.734;10.258;2023-02-08T01:11:40;21.77;;;14.40;;
11731;SDS011;5922;53.734;10.258;2023-02-08T01:14:08;20.87;;;13.67;;
11731;SDS011;5922;53.734;10.258;2023-02-08T01:16:35;19.67;;;13.37;;
11731;SDS011;5922;53.734;10.258;2023-02-08T01:19:03;21.43;;;14.00;;
11731;SDS011;5922;53.734;10.258;2023-02-08T01:21:34;20.53;;;13.70;;
11731;SDS011;5922;53.734;10.258;2023-02-08T01:24:01;18.50;;;13.57;;
11731;SDS011;5922;53.734;10.258;2023-02-08T01:26:30;21.87;;;13.87;;
11731;SDS011;5922;53.734;10.258;2023-02-08T01:28:58;20.93;;;13.63;;
11731;SDS011;5922;53.734;10.258;2023-02-08T01:31:26;21.97;;;14.57;;
11731;SDS011;5922;53.734;10.258;2023-02-08T01:33:54;21.47;;;13.80;;
11731;SDS011;5922;53.734;10.258;2023-02-08T01:36:21;21.87;;;13.67;;
11731;SDS011;5922;53.734;10.258;2023-02-08T01:38:48;21.47;;;13.30;;
11731;SDS011;5922;53.734;10.258;2023-02-08T01:41:16;20.43;;;13.60;;
11731;SDS011;5922;53.734;10.258;2023-02-08T01:44:05;20.13;;;13.63;;
11731;SDS011;5922;53.734;10.258;2023-02-08T01:46:34;24.43;;;15.17;;
11731;SDS011;5922;53.734;10.258;2023-02-08T01:49:02;20.30;;;14.43;;
11731;SDS011;5922;53.734;10.258;2023-02-08T01:51:31;20.70;;;13.90;;
11731;SDS011;5922;53.734;10.258;2023-02-08T01:54:00;21.43;;;14.50;;
11731;SDS011;5922;53.734;10.258;2023-02-08T01:56:29;21.20;;;14.00;;
11731;SDS011;5922;53.734;10.258;2023-02-08T01:58:58;21.27;;;14.80;;
11731;SDS011;5922;53.734;10.258;2023-02-08T02:01:28;20.33;;;13.63;;
11731;SDS011;5922;53.734;10.258;2023-02-08T02:03:56;18.27;;;12.33;;
11731;SDS011;5922;53.734;10.258;2023-02-08T02:06:26;22.43;;;13.37;;
11731;SDS011;5922;53.734;10.258;2023-02-08T02:08:55;20.93;;;14.13;;
11731;SDS011;5922;53.734;10.258;2023-02-08T02:11:23;21.87;;;14.07;;
11731;SDS011;5922;53.734;10.258;2023-02-08T02:13:51;24.03;;;14.23;;
11731;SDS011;5922;53.734;10.258;2023-02-08T02:16:18;21.87;;;13.90;;
11731;SDS011;5922;53.734;10.258;2023-02-08T02:18:47;20.03;;;14.00;;
11731;SDS011;5922;53.734;10.258;2023-02-08T02:35:16;21.73;;;14.20;;
11731;SDS011;5922;53.734;10.258;2023-02-08T02:37:47;20.80;;;14.07;;
11731;SDS011;5922;53.734;10.258;2023-02-08T02:40:20;23.00;;;14.97;;
11731;SDS011;5922;53.734;10.258;2023-02-08T02:42:55;23.10;;;14.40;;
11731;SDS011;5922;53.734;10.258;2023-02-08T02:49:04;25.57;;;15.83;;
11731;SDS011;5922;53.734;10.258;2023-02-08T02:57:54;24.80;;;15.33;;
11731;SDS011;5922;53.734;10.258;2023-02-08T03:03:23;23.10;;;15.63;;
11731;SDS011;5922;53.734;10.258;2023-02-08T03:06:02;25.53;;;16.43;;
11731;SDS011;5922;53.734;10.258;2023-02-08T03:08:52;25.10;;;15.80;;
11731;SDS011;5922;53.734;10.258;2023-02-08T03:11:22;26.63;;;17.13;;
11731;SDS011;5922;53.734;10.258;2023-02-08T03:16:41;24.43;;;15.07;;
11731;SDS011;5922;53.734;10.258;2023-02-08T03:19:18;25.57;;;15.73;;
11731;SDS011;5922;53.734;10.258;2023-02-08T03:21:47;26.20;;;16.17;;
11731;SDS011;5922;53.734;10.258;2023-02-08T03:24:21;23.37;;;16.13;;
11731;SDS011;5922;53.734;10.258;2023-02-08T03:26:52;23.63;;;15.23;;
11731;SDS011;5922;53.734;10.258;2023-02-08T03:29:22;23.83;;;15.53;;
11731;SDS011;5922;53.734;10.258;2023-02-08T03:31:54;25.83;;;16.73;;
11731;SDS011;5922;53.734;10.258;2023-02-08T03:34:23;25.13;;;15.80;;
11731;SDS011;5922;53.734;10.258;2023-02-08T03:36:56;23.43;;;16.20;;
11731;SDS011;5922;53.734;10.258;2023-02-08T03:39:25;24.10;;;16.43;;
11731;SDS011;5922;53.734;10.258;2023-02-08T03:41:54;25.87;;;16.07;;
11731;SDS011;5922;53.734;10.258;2023-02-08T03:44:24;23.80;;;15.20;;
11731;SDS011;5922;53.734;10.258;2023-02-08T03:47:10;25.30;;;15.77;;
11731;SDS011;5922;53.734;10.258;2023-02-08T03:49:39;24.57;;;15.70;;
11731;SDS011;5922;53.734;10.258;2023-02-08T03:52:08;22.97;;;15.83;;
11731;SDS011;5922;53.734;10.258;2023-02-08T03:54:40;24.67;;;15.33;;
11731;SDS011;5922;53.734;10.258;2023-02-08T03:57:12;24.83;;;16.23;;
11731;SDS011;5922;53.734;10.258;2023-02-08T03:59:55;28.10;;;16.77;;
11731;SDS011;5922;53.734;10.258;2023-02-08T04:02:25;24.20;;;14.97;;
11731;SDS011;5922;53.734;10.258;2023-02-08T04:04:53;23.33;;;14.97;;
11731;SDS011;5922;53.734;10.258;2023-02-08T04:07:54;21.73;;;14.90;;
11731;SDS011;5922;53.734;10.258;2023-02-08T04:10:59;21.53;;;14.93;;
11731;SDS011;5922;53.734;10.258;2023-02-08T04:13:16;25.30;;;16.00;;
11731;SDS011;5922;53.734;10.258;2023-02-08T04:15:43;26.13;;;15.63;;
11731;SDS011;5922;53.734;10.258;2023-02-08T04:18:24;26.03;;;16.27;;
11731;SDS011;5922;53.734;10.258;2023-02-08T04:20:51;24.53;;;14.97;;
11731;SDS011;5922;53.734;10.258;2023-02-08T04:23:23;23.33;;;15.53;;
11731;SDS011;5922;53.734;10.258;2023-02-08T04:25:50;24.87;;;15.73;;
11731;SDS011;5922;53.734;10.258;2023-02-08T04:28:17;24.50;;;15.27;;
11731;SDS011;5922;53.734;10.258;2023-02-08T04:30:44;24.43;;;15.53;;
11731;SDS011;5922;53.734;10.258;2023-02-08T04:33:11;21.93;;;13.80;;
11731;SDS011;5922;53.734;10.258;2023-02-08T04:35:40;24.47;;;15.50;;
11731;SDS011;5922;53.734;10.258;2023-02-08T04:38:08;26.63;;;16.07;;
11731;SDS011;5922;53.734;10.258;2023-02-08T04:40:35;27.27;;;15.77;;
11731;SDS011;5922;53.734;10.258;2023-02-08T04:43:03;25.47;;;15.20;;
11731;SDS011;5922;53.734;10.258;2023-02-08T04:45:30;25.73;;;15.60;;
11731;SDS011;5922;53.734;10.258;2023-02-08T04:48:00;22.87;;;15.77;;
11731;SDS011;5922;53.734;10.258;2023-02-08T04:50:27;26.97;;;16.00;;
11731;SDS011;5922;53.734;10.258;2023-02-08T04:52:56;24.50;;;16.07;;
11731;SDS011;5922;53.734;10.258;2023-02-08T04:55:24;24.43;;;15.37;;
11731;SDS011;5922;53.734;10.258;2023-02-08T04:57:51;25.67;;;14.80;;
11731;SDS011;5922;53.734;10.258;2023-02-08T05:00:18;28.20;;;16.40;;
11731;SDS011;5922;53.734;10.258;2023-02-08T05:02:46;20.73;;;14.33;;
11731;SDS011;5922;53.734;10.258;2023-02-08T05:05:13;25.70;;;15.90;;
11731;SDS011;5922;53.734;10.258;2023-02-08T05:07:41;26.00;;;15.27;;
11731;SDS011;5922;53.734;10.258;2023-02-08T05:10:09;25.90;;;15.33;;
11731;SDS011;5922;53.734;10.258;2023-02-08T05:12:37;25.50;;;16.17;;
11731;SDS011;5922;53.734;10.258;2023-02-08T05:15:04;27.27;;;16.37;;
11731;SDS011;5922;53.734;10.258;2023-02-08T05:17:32;26.17;;;15.97;;
11731;SDS011;5922;53.734;10.258;2023-02-08T05:19:59;26.20;;;17.03;;
11731;SDS011;5922;53.734;10.258;2023-02-08T05:22:30;25.37;;;15.13;;
11731;SDS011;5922;53.734;10.258;2023-02-08T05:24:57;24.67;;;15.53;;
11731;SDS011;5922;53.734;10.258;2023-02-08T05:27:27;24.97;;;15.50;;
11731;SDS011;5922;53.734;10.258;2023-02-08T05:29:58;29.80;;;17.03;;
11731;SDS011;5922;53.734;10.258;2023-02-08T05:32:26;28.97;;;16.37;;
11731;SDS011;5922;53.734;10.258;2023-02-08T05:34:53;26.23;;;16.27;;
11731;SDS011;5922;53.734;10.258;2023-02-08T05:37:33;26.10;;;15.47;;
11731;SDS011;5922;53.734;10.258;2023-02-08T05:40:02;25.97;;;15.60;;
11731;SDS011;5922;53.734;10.258;2023-02-08T05:46:06;27.57;;;16.60;;
11731;SDS011;5922;53.734;10.258;2023-02-08T05:48:33;26.47;;;16.17;;
11731;SDS011;5922;53.734;10.258;2023-02-08T05:51:06;29.07;;;16.77;;
11731;SDS011;5922;53.734;10.258;2023-02-08T05:53:34;24.23;;;16.03;;
11731;SDS011;5922;53.734;10.258;2023-02-08T05:56:01;26.63;;;16.40;;
11731;SDS011;5922;53.734;10.258;2023-02-08T05:58:29;27.07;;;15.90;;
11731;SDS011;5922;53.734;10.258;2023-02-08T06:00:56;29.43;;;17.47;;
11731;SDS011;5922;53.734;10.258;2023-02-08T06:06:18;27.93;;;16.13;;
11731;SDS011;5922;53.734;10.258;2023-02-08T06:08:45;26.47;;;16.07;;
11731;SDS011;5922;53.734;10.258;2023-02-08T06:11:12;29.60;;;17.90;;
11731;SDS011;5922;53.734;10.258;2023-02-08T06:13:41;30.70;;;16.97;;
11731;SDS011;5922;53.734;10.258;2023-02-08T06:19:09;26.17;;;16.57;;
11731;SDS011;5922;53.734;10.258;2023-02-08T06:21:38;28.13;;;17.10;;
11731;SDS011;5922;53.734;10.258;2023-02-08T06:24:09;28.27;;;17.57;;
11731;SDS011;5922;53.734;10.258;2023-02-08T06:26:37;30.73;;;17.93;;
11731;SDS011;5922;53.734;10.258;2023-02-08T06:29:05;28.90;;;17.13;;
11731;SDS011;5922;53.734;10.258;2023-02-08T06:31:32;30.70;;;17.60;;
11731;SDS011;5922;53.734;10.258;2023-02-08T06:33:59;29.10;;;18.40;;
11731;SDS011;5922;53.734;10.258;2023-02-08T06:36:27;28.70;;;17.40;;
11731;SDS011;5922;53.734;10.258;2023-02-08T06:39:04;30.53;;;17.03;;
11731;SDS011;5922;53.734;10.258;2023-02-08T06:41:32;31.10;;;18.63;;
11731;SDS011;5922;53.734;10.258;2023-02-08T06:43:59;31.00;;;17.80;;
11731;SDS011;5922;53.734;10.258;2023-02-08T06:46:26;29.83;;;17.53;;
11731;SDS011;5922;53.734;10.258;2023-02-08T06:48:54;31.60;;;18.27;;
11731;SDS011;5922;53.734;10.258;2023-02-08T06:51:23;31.20;;;19.00;;
11731;SDS011;5922;53.734;10.258;2023-02-08T06:53:50;32.60;;;19.07;;
11731;SDS011;5922;53.734;10.258;2023-02-08T06:56:19;31.87;;;17.67;;
11731;SDS011;5922;53.734;10.258;2023-02-08T06:58:46;31.50;;;18.37;;
11731;SDS011;5922;53.734;10.258;2023-02-08T07:01:13;31.07;;;19.17;;
11731;SDS011;5922;53.734;10.258;2023-02-08T07:03:41;31.77;;;18.30;;
11731;SDS011;5922;53.734;10.258;2023-02-08T07:06:10;31.70;;;18.40;;
11731;SDS011;5922;53.734;10.258;2023-02-08T07:08:37;31.17;;;18.47;;
11731;SDS011;5922;53.734;10.258;2023-02-08T07:11:05;34.80;;;19.07;;
11731;SDS011;5922;53.734;10.258;2023-02-08T07:13:35;34.53;;;20.07;;
11731;SDS011;5922;53.734;10.258;2023-02-08T07:16:02;30.63;;;18.77;;
11731;SDS011;5922;53.734;10.258;2023-02-08T07:18:29;35.30;;;18.83;;
11731;SDS011;5922;53.734;10.258;2023-02-08T07:20:57;34.63;;;19.47;;
11731;SDS011;5922;53.734;10.258;2023-02-08T07:23:24;36.10;;;20.57;;
11731;SDS011;5922;53.734;10.258;2023-02-08T07:25:55;31.70;;;19.63;;
11731;SDS011;5922;53.734;10.258;2023-02-08T07:28:23;34.53;;;19.07;;
11731;SDS011;5922;53.734;10.258;2023-02-08T07:30:52;31.17;;;19.50;;
11731;SDS011;5922;53.734;10.258;2023-02-08T07:33:20;32.80;;;20.30;;
11731;SDS011;5922;53.734;10.258;2023-02-08T07:35:48;32.77;;;18.70;;
11731;SDS011;5922;53.734;10.258;2023-02-08T07:38:15;33.87;;;20.33;;
11731;SDS011;5922;53.734;10.258;2023-02-08T07:40:42;35.40;;;20.40;;
11731;SDS011;5922;53.734;10.258;2023-02-08T07:43:09;35.00;;;21.03;;
11731;SDS011;5922;53.734;10.258;2023-02-08T07:45:37;40.17;;;20.83;;
11731;SDS011;5922;53.734;10.258;2023-02-08T07:48:06;36.53;;;20.93;;
11731;SDS011;5922;53.734;10.258;2023-02-08T07:50:36;34.87;;;19.93;;
11731;SDS011;5922;53.734;10.258;2023-02-08T07:53:05;33.20;;;20.17;;
11731;SDS011;5922;53.734;10.258;2023-02-08T07:55:34;32.07;;;19.33;;
11731;SDS011;5922;53.734;10.258;2023-02-08T07:58:02;30.57;;;19.37;;
11731;SDS011;5922;53.734;10.258;2023-02-08T08:00:29;34.40;;;20.27;;
11731;SDS011;5922;53.734;10.258;2023-02-08T08:02:56;34.23;;;19.97;;
11731;SDS011;5922;53.734;10.258;2023-02-08T08:05:25;33.00;;;19.40;;
11731;SDS011;5922;53.734;10.258;2023-02-08T08:07:52;34.77;;;19.87;;
11731;SDS011;5922;53.734;10.258;2023-02-08T08:10:22;32.43;;;20.00;;
11731;SDS011;5922;53.734;10.258;2023-02-08T08:12:58;33.27;;;19.13;;
11731;SDS011;5922;53.734;10.258;2023-02-08T08:15:30;39.23;;;21.57;;
11731;SDS011;5922;53.734;10.258;2023-02-08T08:17:58;38.23;;;20.60;;
11731;SDS011;5922;53.734;10.258;2023-02-08T08:20:26;34.87;;;20.50;;
11731;SDS011;5922;53.734;10.258;2023-02-08T08:22:54;36.30;;;21.03;;
11731;SDS011;5922;53.734;10.258;2023-02-08T08:25:21;34.43;;;21.20;;
11731;SDS011;5922;53.734;10.258;2023-02-08T08:27:48;34.63;;;20.70;;
11731;SDS011;5922;53.734;10.258;2023-02-08T08:30:15;34.47;;;20.70;;
11731;SDS011;5922;53.734;10.258;2023-02-08T08:32:43;35.40;;;20.80;;
11731;SDS011;5922;53.734;10.258;2023-02-08T08:35:10;36.17;;;21.13;;
11731;SDS011;5922;53.734;10.258;2023-02-08T08:37:38;33.63;;;19.00;;
11731;SDS011;5922;53.734;10.258;2023-02-08T08:40:06;35.00;;;20.87;;
11731;SDS011;5922;53.734;10.258;2023-02-08T08:42:34;33.47;;;20.37;;
11731;SDS011;5922;53.734;10.258;2023-02-08T08:45:06;35.50;;;20.53;;
11731;SDS011;5922;53.734;10.258;2023-02-08T08:47:36;33.50;;;19.80;;
11731;SDS011;5922;53.734;10.258;2023-02-08T08:50:03;32.43;;;19.37;;
11731;SDS011;5922;53.734;10.258;2023-02-08T08:52:30;30.63;;;18.53;;
11731;SDS011;5922;53.734;10.258;2023-02-08T08:54:59;30.53;;;18.73;;
11731;SDS011;5922;53.734;10.258;2023-02-08T08:57:26;30.27;;;18.73;;
11731;SDS011;5922;53.734;10.258;2023-02-08T08:59:54;31.30;;;19.53;;
11731;SDS011;5922;53.734;10.258;2023-02-08T09:02:21;32.93;;;19.93;;
11731;SDS011;5922;53.734;10.258;2023-02-08T09:04:48;29.63;;;18.13;;
11731;SDS011;5922;53.734;10.258;2023-02-08T09:07:15;31.77;;;18.70;;
11731;SDS011;5922;53.734;10.258;2023-02-08T09:09:42;31.37;;;17.63;;
11731;SDS011;5922;53.734;10.258;2023-02-08T09:12:13;30.63;;;17.37;;
11731;SDS011;5922;53.734;10.258;2023-02-08T09:14:41;29.27;;;17.53;;
11731;SDS011;5922;53.734;10.258;2023-02-08T09:17:08;32.63;;;18.20;;
11731;SDS011;5922;53.734;10.258;2023-02-08T09:19:36;29.33;;;17.23;;
11731;SDS011;5922;53.734;10.258;2023-02-08T09:22:04;29.93;;;18.20;;
11731;SDS011;5922;53.734;10.258;2023-02-08T09:24:32;30.03;;;16.37;;
11731;SDS011;5922;53.734;10.258;2023-02-08T09:26:59;28.20;;;16.53;;
11731;SDS011;5922;53.734;10.258;2023-02-08T09:29:28;25.73;;;15.83;;
11731;SDS011;5922;53.734;10.258;2023-02-08T09:31:56;24.93;;;15.57;;
11731;SDS011;5922;53.734;10.258;2023-02-08T09:34:24;28.43;;;17.23;;
11731;SDS011;5922;53.734;10.258;2023-02-08T09:36:51;27.40;;;15.70;;
11731;SDS011;5922;53.734;10.258;2023-02-08T09:39:19;26.80;;;15.80;;
11731;SDS011;5922;53.734;10.258;2023-02-08T09:41:51;28.60;;;16.17;;
11731;SDS011;5922;53.734;10.258;2023-02-08T09:44:22;30.07;;;17.07;;
11731;SDS011;5922;53.734;10.258;2023-02-08T09:46:55;28.17;;;15.83;;
11731;SDS011;5922;53.734;10.258;2023-02-08T09:49:23;24.80;;;15.17;;
11731;SDS011;5922;53.734;10.258;2023-02-08T09:51:52;27.60;;;16.57;;
11731;SDS011;5922;53.734;10.258;2023-02-08T09:54:22;28.93;;;16.40;;
11731;SDS011;5922;53.734;10.258;2023-02-08T09:56:52;31.40;;;17.77;;
11731;SDS011;5922;53.734;10.258;2023-02-08T09:59:20;29.40;;;17.13;;
11731;SDS011;5922;53.734;10.258;2023-02-08T10:01:49;29.20;;;17.13;;
11731;SDS011;5922;53.734;10.258;2023-02-08T10:04:23;26.73;;;16.30;;
11731;SDS011;5922;53.734;10.258;2023-02-08T10:06:52;28.00;;;15.40;;
11731;SDS011;5922;53.734;10.258;2023-02-08T10:09:20;28.83;;;16.10;;
11731;SDS011;5922;53.734;10.258;2023-02-08T10:11:49;27.73;;;16.57;;
11731;SDS011;5922;53.734;10.258;2023-02-08T10:17:14;28.07;;;16.90;;
11731;SDS011;5922;53.734;10.258;2023-02-08T10:19:52;27.80;;;16.00;;
11731;SDS011;5922;53.734;10.258;2023-02-08T10:22:26;26.60;;;14.63;;
11731;SDS011;5922;53.734;10.258;2023-02-08T10:25:08;25.73;;;14.53;;
11731;SDS011;5922;53.734;10.258;2023-02-08T10:27:39;25.57;;;15.27;;
11731;SDS011;5922;53.734;10.258;2023-02-08T10:30:13;26.33;;;13.93;;
11731;SDS011;5922;53.734;10.258;2023-02-08T10:32:44;24.87;;;14.80;;
11731;SDS011;5922;53.734;10.258;2023-02-08T10:35:16;24.87;;;14.13;;
11731;SDS011;5922;53.734;10.258;2023-02-08T10:37:45;26.43;;;15.23;;
11731;SDS011;5922;53.734;10.258;2023-02-08T10:40:14;26.17;;;15.57;;
11731;SDS011;5922;53.734;10.258;2023-02-08T10:42:47;24.83;;;15.87;;
11731;SDS011;5922;53.734;10.258;2023-02-08T10:45:17;23.17;;;14.80;;
11731;SDS011;5922;53.734;10.258;2023-02-08T10:47:48;24.60;;;14.43;;
11731;SDS011;5922;53.734;10.258;2023-02-08T10:50:19;25.47;;;15.13;;
11731;SDS011;5922;53.734;10.258;2023-02-08T10:52:48;26.37;;;14.87;;
11731;SDS011;5922;53.734;10.258;2023-02-08T10:55:16;24.23;;;15.33;;
11731;SDS011;5922;53.734;10.258;2023-02-08T10:57:44;26.57;;;14.17;;
11731;SDS011;5922;53.734;10.258;2023-02-08T11:00:14;23.53;;;14.87;;
11731;SDS011;5922;53.734;10.258;2023-02-08T11:02:43;27.03;;;15.50;;
11731;SDS011;5922;53.734;10.258;2023-02-08T11:05:14;26.17;;;14.53;;
11731;SDS011;5922;53.734;10.258;2023-02-08T11:07:44;23.70;;;14.53;;
11731;SDS011;5922;53.734;10.258;2023-02-08T11:10:13;23.27;;;13.57;;
11731;SDS011;5922;53.734;10.258;2023-02-08T11:12:40;24.67;;;14.47;;
11731;SDS011;5922;53.734;10.258;2023-02-08T11:15:20;23.07;;;13.60;;
11731;SDS011;5922;53.734;10.258;2023-02-08T11:17:51;24.20;;;14.07;;
11731;SDS011;5922;53.734;10.258;2023-02-08T11:20:19;24.67;;;14.73;;
11731;SDS011;5922;53.734;10.258;2023-02-08T11:22:49;24.03;;;13.50;;
11731;SDS011;5922;53.734;10.258;2023-02-08T11:25:29;20.63;;;12.50;;
11731;SDS011;5922;53.734;10.258;2023-02-08T11:27:57;21.17;;;11.97;;
11731;SDS011;5922;53.734;10.258;2023-02-08T11:30:25;30.27;;;12.13;;
11731;SDS011;5922;53.734;10.258;2023-02-08T11:33:13;20.47;;;11.50;;
11731;SDS011;5922;53.734;10.258;2023-02-08T11:35:42;20.27;;;11.33;;
11731;SDS011;5922;53.734;10.258;2023-02-08T11:38:16;19.27;;;11.47;;
11731;SDS011;5922;53.734;10.258;2023-02-08T11:40:46;20.77;;;12.40;;
11731;SDS011;5922;53.734;10.258;2023-02-08T11:43:18;19.20;;;10.47;;
11731;SDS011;5922;53.734;10.258;2023-02-08T11:45:46;20.37;;;11.37;;
11731;SDS011;5922;53.734;10.258;2023-02-08T11:48:18;22.77;;;11.33;;
11731;SDS011;5922;53.734;10.258;2023-02-08T11:50:51;17.83;;;10.37;;
11731;SDS011;5922;53.734;10.258;2023-02-08T11:53:22;22.80;;;9.93;;
11731;SDS011;5922;53.734;10.258;2023-02-08T11:56:03;16.53;;;9.90;;
11731;SDS011;5922;53.734;10.258;2023-02-08T11:58:31;17.60;;;10.17;;
11731;SDS011;5922;53.734;10.258;2023-02-08T12:00:59;17.20;;;11.00;;
11731;SDS011;5922;53.734;10.258;2023-02-08T12:03:28;17.27;;;9.83;;
11731;SDS011;5922;53.734;10.258;2023-02-08T12:06:00;16.83;;;8.97;;
11731;SDS011;5922;53.734;10.258;2023-02-08T12:08:32;14.20;;;8.90;;
11731;SDS011;5922;53.734;10.258;2023-02-08T12:11:11;19.10;;;9.43;;
11731;SDS011;5922;53.734;10.258;2023-02-08T12:16:29;15.20;;;9.23;;
11731;SDS011;5922;53.734;10.258;2023-02-08T12:19:06;15.70;;;8.77;;
11731;SDS011;5922;53.734;10.258;2023-02-08T12:21:40;15.60;;;9.00;;
11731;SDS011;5922;53.734;10.258;2023-02-08T12:24:11;18.77;;;9.90;;
11731;SDS011;5922;53.734;10.258;2023-02-08T12:26:59;15.47;;;10.23;;
11731;SDS011;5922;53.734;10.258;2023-02-08T12:29:33;19.07;;;10.77;;
11731;SDS011;5922;53.734;10.258;2023-02-08T12:34:53;18.53;;;11.03;;
11731;SDS011;5922;53.734;10.258;2023-02-08T12:37:27;17.97;;;11.53;;
11731;SDS011;5922;53.734;10.258;2023-02-08T12:40:19;16.80;;;10.07;;
11731;SDS011;5922;53.734;10.258;2023-02-08T12:43:08;15.17;;;9.80;;
11731;SDS011;5922;53.734;10.258;2023-02-08T12:45:52;16.37;;;10.03;;
11731;SDS011;5922;53.734;10.258;2023-02-08T12:48:44;18.87;;;9.87;;
11731;SDS011;5922;53.734;10.258;2023-02-08T12:51:16;19.10;;;10.63;;
11731;SDS011;5922;53.734;10.258;2023-02-08T12:53:48;17.07;;;10.37;;
11731;SDS011;5922;53.734;10.258;2023-02-08T12:56:19;17.10;;;10.27;;
11731;SDS011;5922;53.734;10.258;2023-02-08T12:58:48;17.27;;;10.67;;
11731;SDS011;5922;53.734;10.258;2023-02-08T13:01:21;19.10;;;11.00;;
11731;SDS011;5922;53.734;10.258;2023-02-08T13:03:50;24.77;;;11.30;;
11731;SDS011;5922;53.734;10.258;2023-02-08T13:06:20;17.00;;;9.60;;
11731;SDS011;5922;53.734;10.258;2023-02-08T13:11:56;18.30;;;9.63;;
11731;SDS011;5922;53.734;10.258;2023-02-08T13:14:27;18.13;;;10.93;;
11731;SDS011;5922;53.734;10.258;2023-02-08T13:17:00;18.07;;;11.07;;
11731;SDS011;5922;53.734;10.258;2023-02-08T13:19:30;15.80;;;9.43;;
11731;SDS011;5922;53.734;10.258;2023-02-08T13:21:58;16.80;;;10.03;;
11731;SDS011;5922;53.734;10.258;2023-02-08T13:24:27;19.50;;;10.07;;
11731;SDS011;5922;53.734;10.258;2023-02-08T13:26:58;16.93;;;10.20;;
11731;SDS011;5922;53.734;10.258;2023-02-08T13:29:27;21.73;;;10.20;;
11731;SDS011;5922;53.734;10.258;2023-02-08T13:31:57;15.83;;;9.53;;
11731;SDS011;5922;53.734;10.258;2023-02-08T13:34:27;15.53;;;9.67;;
11731;SDS011;5922;53.734;10.258;2023-02-08T13:36:55;16.10;;;9.87;;
11731;SDS011;5922;53.734;10.258;2023-02-08T13:39:27;16.60;;;10.37;;
11731;SDS011;5922;53.734;10.258;2023-02-08T13:41:56;19.40;;;10.30;;
11731;SDS011;5922;53.734;10.258;2023-02-08T13:44:27;16.90;;;9.60;;
11731;SDS011;5922;53.734;10.258;2023-02-08T13:46:55;16.30;;;9.47;;
11731;SDS011;5922;53.734;10.258;2023-02-08T13:52:09;15.97;;;8.77;;
11731;SDS011;5922;53.734;10.258;2023-02-08T13:54:36;14.13;;;8.33;;
11731;SDS011;5922;53.734;10.258;2023-02-08T13:57:26;13.30;;;8.27;;
11731;SDS011;5922;53.734;10.258;2023-02-08T14:02:45;17.33;;;8.37;;
11731;SDS011;5922;53.734;10.258;2023-02-08T14:05:33;16.13;;;8.30;;
11731;SDS011;5922;53.734;10.258;2023-02-08T14:08:06;15.57;;;7.53;;
11731;SDS011;5922;53.734;10.258;2023-02-08T14:10:36;29.40;;;8.83;;
11731;SDS011;5922;53.734;10.258;2023-02-08T14:13:15;14.40;;;7.73;;
11731;SDS011;5922;53.734;10.258;2023-02-08T14:19:22;16.30;;;8.90;;
11731;SDS011;5922;53.734;10.258;2023-02-08T14:22:21;18.20;;;8.30;;
11731;SDS011;5922;53.734;10.258;2023-02-08T14:27:53;14.17;;;8.73;;
11731;SDS011;5922;53.734;10.258;2023-02-08T14:30:27;13.63;;;8.20;;
11731;SDS011;5922;53.734;10.258;2023-02-08T14:33:17;14.83;;;9.30;;
11731;SDS011;5922;53.734;10.258;2023-02-08T14:47:14;21.13;;;9.10;;
11731;SDS011;5922;53.734;10.258;2023-02-08T14:50:17;16.80;;;9.07;;
11731;SDS011;5922;53.734;10.258;2023-02-08T14:52:55;17.13;;;8.63;;
11731;SDS011;5922;53.734;10.258;2023-02-08T15:01:57;17.47;;;8.67;;
11731;SDS011;5922;53.734;10.258;2023-02-08T15:04:41;13.53;;;8.40;;
11731;SDS011;5922;53.734;10.258;2023-02-08T15:07:16;13.83;;;8.40;;
11731;SDS011;5922;53.734;10.258;2023-02-08T15:13:03;15.37;;;9.43;;
11731;SDS011;5922;53.734;10.258;2023-02-08T15:15:36;13.40;;;7.60;;
11731;SDS011;5922;53.734;10.258;2023-02-08T15:18:14;15.77;;;8.20;;
11731;SDS011;5922;53.734;10.258;2023-02-08T15:24:04;15.30;;;7.57;;
11731;SDS011;5922;53.734;10.258;2023-02-08T15:26:45;13.50;;;8.10;;
11731;SDS011;5922;53.734;10.258;2023-02-08T15:29:38;18.00;;;8.00;;
11731;SDS011;5922;53.734;10.258;2023-02-08T15:32:17;16.10;;;8.67;;
11731;SDS011;5922;53.734;10.258;2023-02-08T15:37:48;13.23;;;8.17;;
11731;SDS011;5922;53.734;10.258;2023-02-08T15:40:25;13.10;;;8.43;;
11731;SDS011;5922;53.734;10.258;2023-02-08T15:43:14;13.03;;;9.03;;
11731;SDS011;5922;53.734;10.258;2023-02-08T15:45:48;15.00;;;8.80;;
11731;SDS011;5922;53.734;10.258;2023-02-08T15:48:30;16.17;;;10.03;;
11731;SDS011;5922;53.734;10.258;2023-02-08T15:51:21;16.70;;;9.80;;
11731;SDS011;5922;53.734;10.258;2023-02-08T15:54:04;17.50;;;9.17;;
11731;SDS011;5922;53.734;10.258;2023-02-08T15:56:54;12.37;;;8.80;;
11731;SDS011;5922;53.734;10.258;2023-02-08T15:59:28;15.87;;;10.27;;
11731;SDS011;5922;53.734;10.258;2023-02-08T16:02:55;15.03;;;9.17;;
11731;SDS011;5922;53.734;10.258;2023-02-08T16:05:17;16.27;;;10.37;;
11731;SDS011;5922;53.734;10.258;2023-02-08T16:07:48;23.70;;;11.43;;
11731;SDS011;5922;53.734;10.258;2023-02-08T16:10:41;17.37;;;10.53;;
11731;SDS011;5922;53.734;10.258;2023-02-08T16:13:19;17.43;;;10.57;;
11731;SDS011;5922;53.734;10.258;2023-02-08T16:16:13;16.70;;;10.27;;
11731;SDS011;5922;53.734;10.258;2023-02-08T16:19:02;15.17;;;9.97;;
11731;SDS011;5922;53.734;10.258;2023-02-08T16:24:38;20.67;;;11.47;;